sensor_id;sensor_type;location;lat;lon;timestamp;P1;durP1;ratioP1;P2;durP2;ratioP2
54945;SDS011;40846;44.788;20.486;2024-03-08T00:00:22;26.60;;;16.83;;
54945;SDS011;40846;44.788;20.486;2024-03-08T00:03:06;26.42;;;17.80;;
54945;SDS011;40846;44.788;20.486;2024-03-08T00:05:38;25.30;;;16.17;;
54945;SDS011;40846;44.788;20.486;2024-03-08T00:10:36;26.13;;;15.25;;
54945;SDS011;40846;44.788;20.486;2024-03-08T00:13:11;21.63;;;15.63;;
54945;SDS011;40846;44.788;20.486;2024-03-08T00:15:36;17.92;;;13.50;;
54945;SDS011;40846;44.788;20.486;2024-03-08T00:18:02;20.48;;;15.55;;
54945;SDS011;40846;44.788;20.486;2024-03-08T00:20:29;20.17;;;14.23;;
54945;SDS011;40846;44.788;20.486;2024-03-08T00:22:54;18.48;;;12.48;;
54945;SDS011;40846;44.788;20.486;2024-03-08T00:25:23;17.05;;;12.38;;
54945;SDS011;40846;44.788;20.486;2024-03-08T00:27:49;21.38;;;13.43;;
54945;SDS011;40846;44.788;20.486;2024-03-08T00:30:14;16.83;;;12.30;;
54945;SDS011;40846;44.788;20.486;2024-03-08T00:32:41;20.15;;;12.95;;
54945;SDS011;40846;44.788;20.486;2024-03-08T00:35:07;17.55;;;12.93;;
54945;SDS011;40846;44.788;20.486;2024-03-08T00:37:33;16.73;;;12.60;;
54945;SDS011;40846;44.788;20.486;2024-03-08T00:39:59;19.95;;;13.27;;
54945;SDS011;40846;44.788;20.486;2024-03-08T00:42:26;15.88;;;11.27;;
54945;SDS011;40846;44.788;20.486;2024-03-08T00:44:52;18.13;;;12.00;;
54945;SDS011;40846;44.788;20.486;2024-03-08T00:47:18;17.48;;;12.70;;
54945;SDS011;40846;44.788;20.486;2024-03-08T00:49:44;19.60;;;13.23;;
54945;SDS011;40846;44.788;20.486;2024-03-08T00:52:11;17.83;;;12.82;;
54945;SDS011;40846;44.788;20.486;2024-03-08T00:54:37;19.52;;;12.77;;
54945;SDS011;40846;44.788;20.486;2024-03-08T00:57:03;19.58;;;12.50;;
54945;SDS011;40846;44.788;20.486;2024-03-08T00:59:31;18.27;;;13.30;;
54945;SDS011;40846;44.788;20.486;2024-03-08T01:01:58;17.92;;;13.20;;
54945;SDS011;40846;44.788;20.486;2024-03-08T01:04:25;17.15;;;12.73;;
54945;SDS011;40846;44.788;20.486;2024-03-08T01:06:54;16.88;;;12.80;;
54945;SDS011;40846;44.788;20.486;2024-03-08T01:09:21;19.35;;;14.05;;
54945;SDS011;40846;44.788;20.486;2024-03-08T01:11:48;24.52;;;14.13;;
54945;SDS011;40846;44.788;20.486;2024-03-08T01:14:14;22.25;;;14.43;;
54945;SDS011;40846;44.788;20.486;2024-03-08T01:16:41;18.13;;;13.23;;
54945;SDS011;40846;44.788;20.486;2024-03-08T01:19:07;24.02;;;12.63;;
54945;SDS011;40846;44.788;20.486;2024-03-08T01:21:33;23.73;;;14.18;;
54945;SDS011;40846;44.788;20.486;2024-03-08T01:24:00;19.60;;;14.10;;
54945;SDS011;40846;44.788;20.486;2024-03-08T01:26:26;21.52;;;14.52;;
54945;SDS011;40846;44.788;20.486;2024-03-08T01:28:52;20.65;;;13.75;;
54945;SDS011;40846;44.788;20.486;2024-03-08T01:31:18;22.90;;;13.52;;
54945;SDS011;40846;44.788;20.486;2024-03-08T01:33:44;18.63;;;13.50;;
54945;SDS011;40846;44.788;20.486;2024-03-08T01:36:11;28.35;;;14.88;;
54945;SDS011;40846;44.788;20.486;2024-03-08T01:38:40;21.80;;;12.85;;
54945;SDS011;40846;44.788;20.486;2024-03-08T01:41:07;16.23;;;12.40;;
54945;SDS011;40846;44.788;20.486;2024-03-08T01:43:34;15.85;;;11.20;;
54945;SDS011;40846;44.788;20.486;2024-03-08T01:46:00;15.77;;;12.25;;
54945;SDS011;40846;44.788;20.486;2024-03-08T01:48:27;22.90;;;13.60;;
54945;SDS011;40846;44.788;20.486;2024-03-08T01:50:55;17.58;;;13.15;;
54945;SDS011;40846;44.788;20.486;2024-03-08T01:53:22;15.30;;;12.05;;
54945;SDS011;40846;44.788;20.486;2024-03-08T01:55:49;18.02;;;12.30;;
54945;SDS011;40846;44.788;20.486;2024-03-08T01:58:16;16.70;;;12.20;;
54945;SDS011;40846;44.788;20.486;2024-03-08T02:00:45;20.90;;;12.07;;
54945;SDS011;40846;44.788;20.486;2024-03-08T02:03:14;21.48;;;12.30;;
54945;SDS011;40846;44.788;20.486;2024-03-08T02:05:40;15.40;;;11.85;;
54945;SDS011;40846;44.788;20.486;2024-03-08T02:08:07;16.92;;;11.38;;
54945;SDS011;40846;44.788;20.486;2024-03-08T02:10:38;16.60;;;11.57;;
54945;SDS011;40846;44.788;20.486;2024-03-08T02:13:04;16.52;;;11.30;;
54945;SDS011;40846;44.788;20.486;2024-03-08T02:18:15;18.70;;;10.38;;
54945;SDS011;40846;44.788;20.486;2024-03-08T02:20:42;13.82;;;11.00;;
54945;SDS011;40846;44.788;20.486;2024-03-08T02:23:08;17.25;;;11.48;;
54945;SDS011;40846;44.788;20.486;2024-03-08T02:25:35;16.50;;;10.98;;
54945;SDS011;40846;44.788;20.486;2024-03-08T02:28:02;16.52;;;11.43;;
54945;SDS011;40846;44.788;20.486;2024-03-08T02:30:28;24.85;;;11.63;;
54945;SDS011;40846;44.788;20.486;2024-03-08T02:32:55;16.77;;;10.52;;
54945;SDS011;40846;44.788;20.486;2024-03-08T02:35:21;16.25;;;11.52;;
54945;SDS011;40846;44.788;20.486;2024-03-08T02:37:47;15.13;;;11.18;;
54945;SDS011;40846;44.788;20.486;2024-03-08T02:40:13;14.13;;;10.63;;
54945;SDS011;40846;44.788;20.486;2024-03-08T02:42:39;20.05;;;10.90;;
54945;SDS011;40846;44.788;20.486;2024-03-08T02:45:05;16.83;;;11.13;;
54945;SDS011;40846;44.788;20.486;2024-03-08T02:47:31;16.77;;;11.25;;
54945;SDS011;40846;44.788;20.486;2024-03-08T02:49:57;16.02;;;10.93;;
54945;SDS011;40846;44.788;20.486;2024-03-08T02:52:23;18.52;;;12.25;;
54945;SDS011;40846;44.788;20.486;2024-03-08T02:54:49;15.68;;;11.18;;
54945;SDS011;40846;44.788;20.486;2024-03-08T02:57:15;14.80;;;10.32;;
54945;SDS011;40846;44.788;20.486;2024-03-08T02:59:41;16.52;;;11.23;;
54945;SDS011;40846;44.788;20.486;2024-03-08T03:02:07;12.73;;;10.23;;
54945;SDS011;40846;44.788;20.486;2024-03-08T03:04:35;22.88;;;11.05;;
54945;SDS011;40846;44.788;20.486;2024-03-08T03:07:01;14.80;;;9.88;;
54945;SDS011;40846;44.788;20.486;2024-03-08T03:09:29;14.88;;;10.50;;
54945;SDS011;40846;44.788;20.486;2024-03-08T03:11:58;17.20;;;10.93;;
54945;SDS011;40846;44.788;20.486;2024-03-08T03:14:24;14.95;;;10.35;;
54945;SDS011;40846;44.788;20.486;2024-03-08T03:16:52;12.18;;;9.48;;
54945;SDS011;40846;44.788;20.486;2024-03-08T03:19:17;15.38;;;9.88;;
54945;SDS011;40846;44.788;20.486;2024-03-08T03:21:43;15.10;;;9.70;;
54945;SDS011;40846;44.788;20.486;2024-03-08T03:24:09;13.68;;;9.70;;
54945;SDS011;40846;44.788;20.486;2024-03-08T03:26:36;21.23;;;10.52;;
54945;SDS011;40846;44.788;20.486;2024-03-08T03:29:06;14.77;;;9.35;;
54945;SDS011;40846;44.788;20.486;2024-03-08T03:31:34;19.00;;;10.30;;
54945;SDS011;40846;44.788;20.486;2024-03-08T03:34:01;16.83;;;12.55;;
54945;SDS011;40846;44.788;20.486;2024-03-08T03:36:31;14.98;;;11.07;;
54945;SDS011;40846;44.788;20.486;2024-03-08T03:38:58;12.68;;;10.02;;
54945;SDS011;40846;44.788;20.486;2024-03-08T03:41:38;16.42;;;11.15;;
54945;SDS011;40846;44.788;20.486;2024-03-08T03:44:07;13.73;;;10.05;;
54945;SDS011;40846;44.788;20.486;2024-03-08T03:46:33;16.55;;;10.85;;
54945;SDS011;40846;44.788;20.486;2024-03-08T03:49:00;17.38;;;10.95;;
54945;SDS011;40846;44.788;20.486;2024-03-08T03:51:28;14.82;;;10.70;;
54945;SDS011;40846;44.788;20.486;2024-03-08T03:53:54;15.32;;;11.18;;
54945;SDS011;40846;44.788;20.486;2024-03-08T03:56:24;27.60;;;11.60;;
54945;SDS011;40846;44.788;20.486;2024-03-08T03:58:51;21.83;;;11.50;;
54945;SDS011;40846;44.788;20.486;2024-03-08T04:01:17;15.48;;;11.60;;
54945;SDS011;40846;44.788;20.486;2024-03-08T04:03:44;15.32;;;11.27;;
54945;SDS011;40846;44.788;20.486;2024-03-08T04:06:10;17.77;;;12.00;;
54945;SDS011;40846;44.788;20.486;2024-03-08T04:08:36;18.70;;;12.77;;
54945;SDS011;40846;44.788;20.486;2024-03-08T04:11:02;21.95;;;12.27;;
54945;SDS011;40846;44.788;20.486;2024-03-08T04:13:28;19.40;;;12.82;;
54945;SDS011;40846;44.788;20.486;2024-03-08T04:15:54;20.27;;;13.65;;
54945;SDS011;40846;44.788;20.486;2024-03-08T04:18:20;23.08;;;13.73;;
54945;SDS011;40846;44.788;20.486;2024-03-08T04:20:46;18.35;;;12.10;;
54945;SDS011;40846;44.788;20.486;2024-03-08T04:23:12;17.45;;;12.80;;
54945;SDS011;40846;44.788;20.486;2024-03-08T04:25:38;19.20;;;12.25;;
54945;SDS011;40846;44.788;20.486;2024-03-08T04:28:04;16.52;;;12.15;;
54945;SDS011;40846;44.788;20.486;2024-03-08T04:30:30;19.25;;;12.32;;
54945;SDS011;40846;44.788;20.486;2024-03-08T04:32:56;20.40;;;14.10;;
54945;SDS011;40846;44.788;20.486;2024-03-08T04:35:22;21.48;;;13.40;;
54945;SDS011;40846;44.788;20.486;2024-03-08T04:37:48;18.50;;;12.65;;
54945;SDS011;40846;44.788;20.486;2024-03-08T04:40:13;16.85;;;12.90;;
54945;SDS011;40846;44.788;20.486;2024-03-08T04:42:39;19.65;;;12.38;;
54945;SDS011;40846;44.788;20.486;2024-03-08T04:45:08;18.02;;;12.25;;
54945;SDS011;40846;44.788;20.486;2024-03-08T04:47:36;18.42;;;12.25;;
54945;SDS011;40846;44.788;20.486;2024-03-08T04:50:02;19.02;;;12.82;;
54945;SDS011;40846;44.788;20.486;2024-03-08T04:52:29;16.80;;;10.98;;
54945;SDS011;40846;44.788;20.486;2024-03-08T04:54:55;15.68;;;10.77;;
54945;SDS011;40846;44.788;20.486;2024-03-08T04:57:21;14.80;;;10.35;;
54945;SDS011;40846;44.788;20.486;2024-03-08T04:59:47;15.40;;;10.88;;
54945;SDS011;40846;44.788;20.486;2024-03-08T05:02:13;14.45;;;9.57;;
54945;SDS011;40846;44.788;20.486;2024-03-08T05:04:39;14.45;;;9.70;;
54945;SDS011;40846;44.788;20.486;2024-03-08T05:07:05;15.30;;;10.27;;
54945;SDS011;40846;44.788;20.486;2024-03-08T05:09:31;13.93;;;9.48;;
54945;SDS011;40846;44.788;20.486;2024-03-08T05:11:57;12.75;;;8.43;;
54945;SDS011;40846;44.788;20.486;2024-03-08T05:14:24;13.25;;;8.63;;
54945;SDS011;40846;44.788;20.486;2024-03-08T05:16:50;12.90;;;9.10;;
54945;SDS011;40846;44.788;20.486;2024-03-08T05:19:17;14.48;;;9.77;;
54945;SDS011;40846;44.788;20.486;2024-03-08T05:21:44;12.85;;;9.32;;
54945;SDS011;40846;44.788;20.486;2024-03-08T05:24:14;17.42;;;9.82;;
54945;SDS011;40846;44.788;20.486;2024-03-08T05:26:43;14.98;;;9.18;;
54945;SDS011;40846;44.788;20.486;2024-03-08T05:29:10;14.15;;;9.80;;
54945;SDS011;40846;44.788;20.486;2024-03-08T05:31:38;13.05;;;8.45;;
54945;SDS011;40846;44.788;20.486;2024-03-08T05:34:15;15.57;;;8.30;;
54945;SDS011;40846;44.788;20.486;2024-03-08T05:36:42;13.40;;;7.90;;
54945;SDS011;40846;44.788;20.486;2024-03-08T05:39:18;12.93;;;8.38;;
54945;SDS011;40846;44.788;20.486;2024-03-08T05:41:45;13.10;;;8.10;;
54945;SDS011;40846;44.788;20.486;2024-03-08T05:44:11;12.48;;;7.97;;
54945;SDS011;40846;44.788;20.486;2024-03-08T05:46:38;12.30;;;8.40;;
54945;SDS011;40846;44.788;20.486;2024-03-08T05:49:04;16.65;;;9.32;;
54945;SDS011;40846;44.788;20.486;2024-03-08T05:51:34;15.35;;;9.68;;
54945;SDS011;40846;44.788;20.486;2024-03-08T05:54:01;16.20;;;9.20;;
54945;SDS011;40846;44.788;20.486;2024-03-08T05:56:32;14.95;;;9.32;;
54945;SDS011;40846;44.788;20.486;2024-03-08T05:58:58;15.77;;;9.15;;
54945;SDS011;40846;44.788;20.486;2024-03-08T06:01:24;17.45;;;9.45;;
54945;SDS011;40846;44.788;20.486;2024-03-08T06:03:51;19.25;;;11.93;;
54945;SDS011;40846;44.788;20.486;2024-03-08T06:06:20;16.58;;;10.50;;
54945;SDS011;40846;44.788;20.486;2024-03-08T06:08:47;14.05;;;10.13;;
54945;SDS011;40846;44.788;20.486;2024-03-08T06:11:19;19.20;;;10.88;;
54945;SDS011;40846;44.788;20.486;2024-03-08T06:13:46;14.57;;;10.02;;
54945;SDS011;40846;44.788;20.486;2024-03-08T06:16:12;15.32;;;9.70;;
54945;SDS011;40846;44.788;20.486;2024-03-08T06:18:38;15.98;;;9.90;;
54945;SDS011;40846;44.788;20.486;2024-03-08T06:21:07;14.27;;;9.82;;
54945;SDS011;40846;44.788;20.486;2024-03-08T06:23:39;16.52;;;9.80;;
54945;SDS011;40846;44.788;20.486;2024-03-08T06:26:05;17.08;;;9.10;;
54945;SDS011;40846;44.788;20.486;2024-03-08T06:28:31;14.35;;;8.65;;
54945;SDS011;40846;44.788;20.486;2024-03-08T06:31:00;18.02;;;10.52;;
54945;SDS011;40846;44.788;20.486;2024-03-08T06:33:26;14.35;;;9.98;;
54945;SDS011;40846;44.788;20.486;2024-03-08T06:35:53;19.13;;;11.02;;
54945;SDS011;40846;44.788;20.486;2024-03-08T06:38:24;15.88;;;10.55;;
54945;SDS011;40846;44.788;20.486;2024-03-08T06:40:51;15.57;;;9.98;;
54945;SDS011;40846;44.788;20.486;2024-03-08T06:43:17;13.82;;;9.57;;
54945;SDS011;40846;44.788;20.486;2024-03-08T06:45:46;18.40;;;10.52;;
54945;SDS011;40846;44.788;20.486;2024-03-08T06:48:16;17.00;;;9.83;;
54945;SDS011;40846;44.788;20.486;2024-03-08T06:50:45;13.85;;;9.07;;
54945;SDS011;40846;44.788;20.486;2024-03-08T06:53:12;19.73;;;10.88;;
54945;SDS011;40846;44.788;20.486;2024-03-08T06:55:39;16.70;;;10.23;;
54945;SDS011;40846;44.788;20.486;2024-03-08T06:58:05;21.38;;;10.75;;
54945;SDS011;40846;44.788;20.486;2024-03-08T07:00:36;21.90;;;11.57;;
54945;SDS011;40846;44.788;20.486;2024-03-08T07:03:08;19.15;;;11.60;;
54945;SDS011;40846;44.788;20.486;2024-03-08T07:05:37;18.90;;;11.40;;
54945;SDS011;40846;44.788;20.486;2024-03-08T07:08:03;17.85;;;11.35;;
54945;SDS011;40846;44.788;20.486;2024-03-08T07:10:29;18.60;;;11.52;;
54945;SDS011;40846;44.788;20.486;2024-03-08T07:12:55;18.55;;;12.40;;
54945;SDS011;40846;44.788;20.486;2024-03-08T07:15:20;20.30;;;12.07;;
54945;SDS011;40846;44.788;20.486;2024-03-08T07:17:48;19.05;;;12.32;;
54945;SDS011;40846;44.788;20.486;2024-03-08T07:20:14;18.15;;;11.13;;
54945;SDS011;40846;44.788;20.486;2024-03-08T07:22:44;20.40;;;11.52;;
54945;SDS011;40846;44.788;20.486;2024-03-08T07:25:12;19.35;;;11.88;;
54945;SDS011;40846;44.788;20.486;2024-03-08T07:27:52;20.83;;;12.48;;
54945;SDS011;40846;44.788;20.486;2024-03-08T07:30:20;20.05;;;12.60;;
54945;SDS011;40846;44.788;20.486;2024-03-08T07:33:06;17.50;;;11.00;;
54945;SDS011;40846;44.788;20.486;2024-03-08T07:35:37;16.33;;;10.43;;
54945;SDS011;40846;44.788;20.486;2024-03-08T07:38:06;20.85;;;12.55;;
54945;SDS011;40846;44.788;20.486;2024-03-08T07:40:37;19.13;;;10.70;;
54945;SDS011;40846;44.788;20.486;2024-03-08T07:43:09;20.40;;;12.50;;
54945;SDS011;40846;44.788;20.486;2024-03-08T07:45:39;22.20;;;13.38;;
54945;SDS011;40846;44.788;20.486;2024-03-08T07:48:05;21.77;;;13.20;;
54945;SDS011;40846;44.788;20.486;2024-03-08T07:50:38;24.52;;;13.85;;
54945;SDS011;40846;44.788;20.486;2024-03-08T07:53:05;26.23;;;14.35;;
54945;SDS011;40846;44.788;20.486;2024-03-08T07:55:34;21.65;;;14.18;;
54945;SDS011;40846;44.788;20.486;2024-03-08T07:58:01;28.77;;;14.70;;
54945;SDS011;40846;44.788;20.486;2024-03-08T08:00:28;30.45;;;15.88;;
54945;SDS011;40846;44.788;20.486;2024-03-08T08:02:55;32.03;;;17.00;;
54945;SDS011;40846;44.788;20.486;2024-03-08T08:05:22;32.20;;;16.85;;
54945;SDS011;40846;44.788;20.486;2024-03-08T08:07:48;33.22;;;17.73;;
54945;SDS011;40846;44.788;20.486;2024-03-08T08:10:15;30.15;;;16.35;;
54945;SDS011;40846;44.788;20.486;2024-03-08T08:12:46;28.60;;;17.50;;
54945;SDS011;40846;44.788;20.486;2024-03-08T08:15:13;30.48;;;16.35;;
54945;SDS011;40846;44.788;20.486;2024-03-08T08:17:41;28.00;;;16.63;;
54945;SDS011;40846;44.788;20.486;2024-03-08T08:20:07;25.00;;;14.93;;
54945;SDS011;40846;44.788;20.486;2024-03-08T08:22:35;33.85;;;17.38;;
54945;SDS011;40846;44.788;20.486;2024-03-08T08:25:01;28.35;;;15.52;;
54945;SDS011;40846;44.788;20.486;2024-03-08T08:27:27;24.10;;;15.25;;
54945;SDS011;40846;44.788;20.486;2024-03-08T08:29:53;26.75;;;15.25;;
54945;SDS011;40846;44.788;20.486;2024-03-08T08:32:18;26.55;;;15.18;;
54945;SDS011;40846;44.788;20.486;2024-03-08T08:34:45;24.65;;;15.20;;
54945;SDS011;40846;44.788;20.486;2024-03-08T08:37:11;28.73;;;15.55;;
54945;SDS011;40846;44.788;20.486;2024-03-08T08:39:37;25.63;;;14.75;;
54945;SDS011;40846;44.788;20.486;2024-03-08T08:42:03;23.05;;;15.73;;
54945;SDS011;40846;44.788;20.486;2024-03-08T08:44:29;23.88;;;16.00;;
54945;SDS011;40846;44.788;20.486;2024-03-08T08:46:56;23.80;;;14.35;;
54945;SDS011;40846;44.788;20.486;2024-03-08T08:49:23;24.80;;;14.68;;
54945;SDS011;40846;44.788;20.486;2024-03-08T08:51:51;24.23;;;13.57;;
54945;SDS011;40846;44.788;20.486;2024-03-08T08:54:17;22.48;;;14.93;;
54945;SDS011;40846;44.788;20.486;2024-03-08T08:56:43;21.90;;;14.02;;
54945;SDS011;40846;44.788;20.486;2024-03-08T08:59:10;21.15;;;13.90;;
54945;SDS011;40846;44.788;20.486;2024-03-08T09:01:39;24.73;;;13.70;;
54945;SDS011;40846;44.788;20.486;2024-03-08T09:04:05;22.38;;;14.77;;
54945;SDS011;40846;44.788;20.486;2024-03-08T09:06:32;28.10;;;15.38;;
54945;SDS011;40846;44.788;20.486;2024-03-08T09:08:58;23.25;;;14.95;;
54945;SDS011;40846;44.788;20.486;2024-03-08T09:11:24;24.17;;;14.27;;
54945;SDS011;40846;44.788;20.486;2024-03-08T09:13:52;22.23;;;14.13;;
54945;SDS011;40846;44.788;20.486;2024-03-08T09:16:18;24.83;;;14.93;;
54945;SDS011;40846;44.788;20.486;2024-03-08T09:18:44;27.30;;;15.88;;
54945;SDS011;40846;44.788;20.486;2024-03-08T09:21:10;23.10;;;14.40;;
54945;SDS011;40846;44.788;20.486;2024-03-08T09:23:38;29.70;;;15.98;;
54945;SDS011;40846;44.788;20.486;2024-03-08T09:26:05;28.63;;;14.73;;
54945;SDS011;40846;44.788;20.486;2024-03-08T09:28:34;27.27;;;14.80;;
54945;SDS011;40846;44.788;20.486;2024-03-08T09:31:00;23.23;;;14.48;;
54945;SDS011;40846;44.788;20.486;2024-03-08T09:33:26;26.73;;;15.45;;
54945;SDS011;40846;44.788;20.486;2024-03-08T09:35:53;25.17;;;14.27;;
54945;SDS011;40846;44.788;20.486;2024-03-08T09:38:19;25.73;;;15.75;;
54945;SDS011;40846;44.788;20.486;2024-03-08T09:40:45;23.20;;;14.05;;
54945;SDS011;40846;44.788;20.486;2024-03-08T09:43:13;24.30;;;13.85;;
54945;SDS011;40846;44.788;20.486;2024-03-08T09:45:40;21.63;;;14.07;;
54945;SDS011;40846;44.788;20.486;2024-03-08T09:48:15;26.83;;;14.32;;
54945;SDS011;40846;44.788;20.486;2024-03-08T09:50:44;22.60;;;13.90;;
54945;SDS011;40846;44.788;20.486;2024-03-08T09:53:11;24.63;;;14.07;;
54945;SDS011;40846;44.788;20.486;2024-03-08T09:55:37;25.42;;;15.38;;
54945;SDS011;40846;44.788;20.486;2024-03-08T09:58:07;26.60;;;14.65;;
54945;SDS011;40846;44.788;20.486;2024-03-08T10:00:53;25.45;;;14.77;;
54945;SDS011;40846;44.788;20.486;2024-03-08T10:03:19;25.67;;;15.52;;
54945;SDS011;40846;44.788;20.486;2024-03-08T10:05:45;28.08;;;16.02;;
54945;SDS011;40846;44.788;20.486;2024-03-08T10:08:11;24.75;;;15.52;;
54945;SDS011;40846;44.788;20.486;2024-03-08T10:10:38;31.25;;;16.70;;
54945;SDS011;40846;44.788;20.486;2024-03-08T10:13:07;27.92;;;16.02;;
54945;SDS011;40846;44.788;20.486;2024-03-08T10:15:34;25.55;;;15.55;;
54945;SDS011;40846;44.788;20.486;2024-03-08T10:18:01;23.75;;;13.85;;
54945;SDS011;40846;44.788;20.486;2024-03-08T10:20:28;31.35;;;15.95;;
54945;SDS011;40846;44.788;20.486;2024-03-08T10:22:59;27.20;;;15.55;;
54945;SDS011;40846;44.788;20.486;2024-03-08T10:25:26;29.63;;;15.27;;
54945;SDS011;40846;44.788;20.486;2024-03-08T10:27:51;25.50;;;15.25;;
54945;SDS011;40846;44.788;20.486;2024-03-08T10:30:17;22.42;;;14.15;;
54945;SDS011;40846;44.788;20.486;2024-03-08T10:32:46;21.35;;;13.95;;
54945;SDS011;40846;44.788;20.486;2024-03-08T10:35:13;23.83;;;15.02;;
54945;SDS011;40846;44.788;20.486;2024-03-08T10:37:44;24.70;;;13.93;;
54945;SDS011;40846;44.788;20.486;2024-03-08T10:40:20;26.58;;;15.10;;
54945;SDS011;40846;44.788;20.486;2024-03-08T10:42:53;30.58;;;15.23;;
54945;SDS011;40846;44.788;20.486;2024-03-08T10:51:03;30.88;;;14.57;;
54945;SDS011;40846;44.788;20.486;2024-03-08T10:53:30;22.73;;;15.20;;
54945;SDS011;40846;44.788;20.486;2024-03-08T10:55:56;26.42;;;14.45;;
54945;SDS011;40846;44.788;20.486;2024-03-08T10:58:24;26.42;;;14.48;;
54945;SDS011;40846;44.788;20.486;2024-03-08T11:00:54;23.50;;;15.77;;
54945;SDS011;40846;44.788;20.486;2024-03-08T11:06:06;28.52;;;15.77;;
54945;SDS011;40846;44.788;20.486;2024-03-08T11:08:35;31.25;;;14.93;;
54945;SDS011;40846;44.788;20.486;2024-03-08T11:11:02;22.83;;;15.15;;
54945;SDS011;40846;44.788;20.486;2024-03-08T11:13:33;22.10;;;14.00;;
54945;SDS011;40846;44.788;20.486;2024-03-08T11:16:36;22.90;;;13.90;;
54945;SDS011;40846;44.788;20.486;2024-03-08T11:19:05;25.50;;;14.43;;
54945;SDS011;40846;44.788;20.486;2024-03-08T11:21:35;29.55;;;15.93;;
54945;SDS011;40846;44.788;20.486;2024-03-08T11:24:08;24.85;;;15.43;;
54945;SDS011;40846;44.788;20.486;2024-03-08T11:26:38;22.70;;;14.55;;
54945;SDS011;40846;44.788;20.486;2024-03-08T11:32:03;24.45;;;16.00;;
54945;SDS011;40846;44.788;20.486;2024-03-08T11:34:30;23.85;;;15.60;;
54945;SDS011;40846;44.788;20.486;2024-03-08T11:36:58;22.60;;;15.45;;
54945;SDS011;40846;44.788;20.486;2024-03-08T11:39:25;26.05;;;14.68;;
54945;SDS011;40846;44.788;20.486;2024-03-08T11:41:51;21.50;;;15.55;;
54945;SDS011;40846;44.788;20.486;2024-03-08T11:44:17;26.95;;;14.80;;
54945;SDS011;40846;44.788;20.486;2024-03-08T11:46:43;32.03;;;15.65;;
54945;SDS011;40846;44.788;20.486;2024-03-08T11:49:15;22.08;;;14.43;;
54945;SDS011;40846;44.788;20.486;2024-03-08T11:51:41;25.92;;;15.73;;
54945;SDS011;40846;44.788;20.486;2024-03-08T11:54:12;29.50;;;16.60;;
54945;SDS011;40846;44.788;20.486;2024-03-08T11:56:38;22.85;;;16.17;;
54945;SDS011;40846;44.788;20.486;2024-03-08T11:59:06;26.17;;;15.60;;
54945;SDS011;40846;44.788;20.486;2024-03-08T12:01:38;27.95;;;16.35;;
54945;SDS011;40846;44.788;20.486;2024-03-08T12:04:04;28.25;;;17.67;;
54945;SDS011;40846;44.788;20.486;2024-03-08T12:06:37;26.95;;;16.63;;
54945;SDS011;40846;44.788;20.486;2024-03-08T12:09:10;27.63;;;17.00;;
54945;SDS011;40846;44.788;20.486;2024-03-08T12:11:38;24.65;;;15.27;;
54945;SDS011;40846;44.788;20.486;2024-03-08T12:14:04;24.05;;;16.05;;
54945;SDS011;40846;44.788;20.486;2024-03-08T12:16:31;23.77;;;15.82;;
54945;SDS011;40846;44.788;20.486;2024-03-08T12:18:57;26.50;;;15.88;;
54945;SDS011;40846;44.788;20.486;2024-03-08T12:21:25;27.98;;;17.02;;
54945;SDS011;40846;44.788;20.486;2024-03-08T12:24:07;26.80;;;15.88;;
54945;SDS011;40846;44.788;20.486;2024-03-08T12:26:34;25.65;;;16.20;;
54945;SDS011;40846;44.788;20.486;2024-03-08T12:31:52;25.70;;;14.93;;
54945;SDS011;40846;44.788;20.486;2024-03-08T12:34:23;24.00;;;15.23;;
54945;SDS011;40846;44.788;20.486;2024-03-08T12:36:50;25.10;;;15.07;;
54945;SDS011;40846;44.788;20.486;2024-03-08T12:39:19;26.30;;;16.27;;
54945;SDS011;40846;44.788;20.486;2024-03-08T12:41:54;20.88;;;14.70;;
54945;SDS011;40846;44.788;20.486;2024-03-08T12:44:22;22.02;;;14.68;;
54945;SDS011;40846;44.788;20.486;2024-03-08T12:46:48;23.50;;;14.90;;
54945;SDS011;40846;44.788;20.486;2024-03-08T12:49:16;28.23;;;15.38;;
54945;SDS011;40846;44.788;20.486;2024-03-08T12:51:47;21.60;;;14.13;;
54945;SDS011;40846;44.788;20.486;2024-03-08T12:54:14;18.42;;;12.13;;
54945;SDS011;40846;44.788;20.486;2024-03-08T12:56:40;23.67;;;11.93;;
54945;SDS011;40846;44.788;20.486;2024-03-08T12:59:06;20.17;;;12.65;;
54945;SDS011;40846;44.788;20.486;2024-03-08T13:01:33;20.30;;;12.90;;
54945;SDS011;40846;44.788;20.486;2024-03-08T13:04:02;19.75;;;13.23;;
54945;SDS011;40846;44.788;20.486;2024-03-08T13:06:28;19.70;;;12.13;;
54945;SDS011;40846;44.788;20.486;2024-03-08T13:09:17;84.10;;;17.75;;
54945;SDS011;40846;44.788;20.486;2024-03-08T13:11:44;22.35;;;13.32;;
54945;SDS011;40846;44.788;20.486;2024-03-08T13:14:10;17.45;;;12.35;;
54945;SDS011;40846;44.788;20.486;2024-03-08T13:16:37;18.73;;;11.98;;
54945;SDS011;40846;44.788;20.486;2024-03-08T13:19:03;16.38;;;10.57;;
54945;SDS011;40846;44.788;20.486;2024-03-08T13:21:29;20.65;;;11.65;;
54945;SDS011;40846;44.788;20.486;2024-03-08T13:23:56;17.75;;;11.30;;
54945;SDS011;40846;44.788;20.486;2024-03-08T13:26:24;18.45;;;11.52;;
54945;SDS011;40846;44.788;20.486;2024-03-08T13:28:53;17.92;;;11.40;;
54945;SDS011;40846;44.788;20.486;2024-03-08T13:31:19;16.35;;;11.30;;
54945;SDS011;40846;44.788;20.486;2024-03-08T13:33:45;15.90;;;10.00;;
54945;SDS011;40846;44.788;20.486;2024-03-08T13:36:16;18.83;;;12.13;;
54945;SDS011;40846;44.788;20.486;2024-03-08T13:38:46;18.20;;;11.82;;
54945;SDS011;40846;44.788;20.486;2024-03-08T13:41:16;15.15;;;10.40;;
54945;SDS011;40846;44.788;20.486;2024-03-08T13:43:45;16.10;;;10.55;;
54945;SDS011;40846;44.788;20.486;2024-03-08T13:46:15;16.65;;;10.90;;
54945;SDS011;40846;44.788;20.486;2024-03-08T13:48:41;21.58;;;12.63;;
54945;SDS011;40846;44.788;20.486;2024-03-08T13:51:08;17.27;;;10.07;;
54945;SDS011;40846;44.788;20.486;2024-03-08T13:56:06;17.10;;;11.32;;
54945;SDS011;40846;44.788;20.486;2024-03-08T13:58:35;20.48;;;11.40;;
54945;SDS011;40846;44.788;20.486;2024-03-08T14:01:01;13.93;;;9.10;;
54945;SDS011;40846;44.788;20.486;2024-03-08T14:03:30;16.17;;;11.43;;
54945;SDS011;40846;44.788;20.486;2024-03-08T14:05:57;17.25;;;11.18;;
54945;SDS011;40846;44.788;20.486;2024-03-08T14:08:24;16.73;;;10.95;;
54945;SDS011;40846;44.788;20.486;2024-03-08T14:10:52;20.85;;;9.48;;
54945;SDS011;40846;44.788;20.486;2024-03-08T14:13:18;17.55;;;10.30;;
54945;SDS011;40846;44.788;20.486;2024-03-08T14:15:44;16.80;;;9.88;;
54945;SDS011;40846;44.788;20.486;2024-03-08T14:18:11;16.20;;;10.73;;
54945;SDS011;40846;44.788;20.486;2024-03-08T14:20:38;16.63;;;10.77;;
54945;SDS011;40846;44.788;20.486;2024-03-08T14:23:04;18.20;;;11.27;;
54945;SDS011;40846;44.788;20.486;2024-03-08T14:25:33;14.40;;;9.07;;
54945;SDS011;40846;44.788;20.486;2024-03-08T14:27:59;16.65;;;10.95;;
54945;SDS011;40846;44.788;20.486;2024-03-08T14:30:32;12.27;;;8.27;;
54945;SDS011;40846;44.788;20.486;2024-03-08T14:33:03;16.85;;;8.20;;
54945;SDS011;40846;44.788;20.486;2024-03-08T14:35:36;12.30;;;7.97;;